Time;durP1;ratioP1;P1;durP2;ratioP2;P2;SDS_P1;SDS_P2;PMS_P1;PMS_P2;Temp;Humidity;BMP_temperature;BMP_pressure;BME280_temperature;BME280_humidity;BME280_pressure;Samples;Min_cycle;Max_cycle;Signal;HPM_P1;HPM_P2
2021/03/22 00:01:17;;;;;;;15.18;3.13;;;;;;;3.45;55.34;102163.81;5027714;28;20040;-69
2021/03/22 00:03:43;;;;;;;24.80;3.97;;;;;;;3.90;54.22;102162.53;5060796;28;20041;-69
2021/03/22 00:06:08;;;;;;;18.45;2.40;;;;;;;3.49;55.26;102159.53;5047046;28;20033;-70
2021/03/22 00:08:34;;;;;;;11.95;2.78;;;;;;;3.47;55.55;102162.13;5045522;28;20029;-69
2021/03/22 00:11:00;;;;;;;17.52;2.83;;;;;;;3.25;55.67;102153.25;5026348;28;20033;-69
2021/03/22 00:13:26;;;;;;;17.65;2.80;;;;;;;3.77;54.49;102165.84;5047865;28;20040;-69
2021/03/22 00:15:55;;;;;;;20.52;2.25;;;;;;;3.57;55.02;102168.25;5057708;28;20032;-70
2021/03/22 00:18:26;;;;;;;19.42;3.90;;;;;;;3.44;55.24;102172.41;5047693;28;20044;-70
2021/03/22 00:20:53;;;;;;;23.80;3.35;;;;;;;3.43;55.64;102172.41;5042241;28;20071;-69
2021/03/22 00:23:18;;;;;;;22.05;2.85;;;;;;;3.51;55.55;102178.50;5045266;28;20024;-69
2021/03/22 00:25:44;;;;;;;15.15;2.72;;;;;;;2.86;57.10;102176.88;5047524;28;20037;-70
2021/03/22 00:28:11;;;;;;;14.20;2.17;;;;;;;3.25;56.38;102175.59;5043947;28;20033;-70
2021/03/22 00:30:39;;;;;;;19.35;3.42;;;;;;;3.41;55.66;102167.22;5048464;28;20029;-70
2021/03/22 00:33:05;;;;;;;22.33;3.17;;;;;;;3.96;54.33;102167.75;5046081;28;20492;-70
2021/03/22 00:35:32;;;;;;;24.48;4.10;;;;;;;3.53;55.52;102172.50;5045909;28;20036;-70
2021/03/22 00:37:57;;;;;;;18.00;3.72;;;;;;;3.45;55.73;102162.94;5044955;28;20431;-70
2021/03/22 00:40:27;;;;;;;21.42;2.75;;;;;;;3.48;55.67;102169.00;5046199;28;20638;-71
2021/03/22 00:42:52;;;;;;;25.92;3.28;;;;;;;3.57;55.25;102163.06;5045372;28;20025;-69
2021/03/22 00:45:19;;;;;;;23.80;4.47;;;;;;;3.78;54.66;102164.97;5044005;28;20091;-70
2021/03/22 00:47:45;;;;;;;26.23;2.88;;;;;;;3.21;56.45;102172.13;5045744;28;21588;-70
2021/03/22 00:50:19;;;;;;;13.60;3.63;;;;;;;3.61;55.43;102164.84;5047554;28;20033;-69
2021/03/22 00:52:46;;;;;;;20.83;3.75;;;;;;;3.95;54.46;102155.66;5042262;28;20463;-70
2021/03/22 00:55:11;;;;;;;19.27;2.03;;;;;;;3.85;54.44;102169.38;5044692;28;20111;-70
2021/03/22 00:57:37;;;;;;;28.63;3.17;;;;;;;4.04;53.95;102165.22;5027492;28;20040;-70
2021/03/22 01:00:04;;;;;;;18.65;2.38;;;;;;;3.94;54.32;102164.28;5045981;28;20068;-70
2021/03/22 01:02:30;;;;;;;20.15;2.88;;;;;;;3.72;54.94;102158.06;5045817;28;20083;-70
2021/03/22 01:04:55;;;;;;;21.58;2.72;;;;;;;3.99;54.04;102170.34;5043498;28;20608;-70
2021/03/22 01:07:21;;;;;;;15.30;3.20;;;;;;;3.98;54.33;102163.47;5058975;28;20043;-70
2021/03/22 01:09:46;;;;;;;31.23;3.33;;;;;;;4.07;53.93;102159.19;5045228;28;20391;-70
2021/03/22 01:12:12;;;;;;;21.42;3.10;;;;;;;3.53;55.73;102164.75;5046459;28;20037;-70
2021/03/22 01:14:37;;;;;;;25.13;2.78;;;;;;;3.70;55.01;102153.72;5042071;28;20098;-70
2021/03/22 01:17:04;;;;;;;11.50;2.50;;;;;;;3.89;54.24;102150.41;5062925;28;20073;-70
2021/03/22 01:19:30;;;;;;;23.95;3.20;;;;;;;3.70;55.13;102149.41;5044663;28;20150;-69
2021/03/22 01:21:58;;;;;;;18.98;2.40;;;;;;;3.90;54.14;102151.31;5041890;28;20051;-70
2021/03/22 01:24:26;;;;;;;35.63;3.88;;;;;;;4.08;53.91;102150.59;5046229;28;20440;-69
2021/03/22 01:26:54;;;;;;;19.20;2.88;;;;;;;4.10;53.92;102154.91;5045768;28;20037;-70
2021/03/22 01:29:34;;;;;;;14.77;2.00;;;;;;;3.73;55.00;102153.75;5043520;28;20021;-70
2021/03/22 01:32:01;;;;;;;15.57;2.30;;;;;;;4.36;53.22;102156.81;5047174;28;20119;-70
2021/03/22 01:34:29;;;;;;;14.50;2.30;;;;;;;4.17;53.46;102158.41;5044050;28;20033;-69
2021/03/22 01:36:56;;;;;;;21.35;3.22;;;;;;;4.06;54.17;102147.13;5044600;28;20029;-71
2021/03/22 01:39:26;;;;;;;19.25;2.50;;;;;;;4.11;54.12;102145.44;5042830;28;20037;-70
2021/03/22 01:42:15;;;;;;;17.75;2.85;;;;;;;3.98;54.04;102140.19;5045198;28;20032;-70
2021/03/22 01:44:46;;;;;;;20.60;2.60;;;;;;;3.65;55.01;102145.03;5046095;28;20040;-69
2021/03/22 01:47:19;;;;;;;14.77;1.95;;;;;;;3.69;55.17;102144.22;5044490;28;20057;-70
2021/03/22 01:49:50;;;;;;;11.57;2.22;;;;;;;4.06;54.00;102147.13;5048025;28;20496;-70
2021/03/22 01:52:16;;;;;;;26.42;2.78;;;;;;;3.39;55.99;102146.53;5043929;28;20044;-70
2021/03/22 01:54:42;;;;;;;17.60;3.08;;;;;;;4.15;53.31;102142.00;5046176;28;20319;-70
2021/03/22 01:57:34;;;;;;;13.75;2.00;;;;;;;4.23;53.32;102142.94;5045190;28;20069;-70
2021/03/22 02:00:12;;;;;;;14.60;1.60;;;;;;;4.40;52.69;102145.63;5044738;28;20030;-70
2021/03/22 02:02:39;;;;;;;14.20;2.50;;;;;;;4.16;53.23;102146.31;5043130;28;20051;-70
2021/03/22 02:05:08;;;;;;;18.67;1.95;;;;;;;4.12;53.53;102136.78;5029498;28;20033;-70
2021/03/22 02:07:35;;;;;;;17.42;2.15;;;;;;;4.04;53.38;102144.50;5045608;28;20491;-70
2021/03/22 02:10:00;;;;;;;19.10;1.48;;;;;;;3.94;53.74;102129.75;5046401;28;20064;-70
2021/03/22 02:12:29;;;;;;;13.20;2.05;;;;;;;3.46;55.04;102134.53;5044602;28;20056;-70
2021/03/22 02:14:56;;;;;;;19.27;2.90;;;;;;;3.80;54.34;102133.09;5044133;28;20090;-70
2021/03/22 02:17:24;;;;;;;20.20;3.33;;;;;;;3.51;54.84;102137.16;5043205;28;20029;-69
2021/03/22 02:20:14;;;;;;;10.02;1.65;;;;;;;3.50;54.95;102138.03;5044451;28;20080;-70
2021/03/22 02:23:13;;;;;;;14.30;2.42;;;;;;;3.71;54.64;102134.75;5045984;28;20039;-70
2021/03/22 02:25:46;;;;;;;11.00;2.05;;;;;;;3.67;54.34;102135.56;5044050;28;20036;-69
2021/03/22 02:28:31;;;;;;;19.70;2.22;;;;;;;3.72;54.25;102137.38;5043470;28;20112;-69
2021/03/22 02:30:56;;;;;;;19.35;1.75;;;;;;;3.74;54.66;102138.25;5044421;28;20100;-69
2021/03/22 02:33:40;;;;;;;16.70;2.15;;;;;;;3.79;54.34;102133.13;5045136;28;20518;-69
2021/03/22 02:36:28;;;;;;;14.07;3.50;;;;;;;3.71;54.86;102134.75;5045540;28;20044;-69
2021/03/22 02:38:59;;;;;;;13.52;1.23;;;;;;;3.36;55.92;102137.88;5051598;28;20029;-70
2021/03/22 02:41:39;;;;;;;8.75;1.05;;;;;;;3.48;55.59;102142.31;5027504;28;20033;-70
2021/03/22 02:44:12;;;;;;;11.00;1.75;;;;;;;3.40;55.59;102139.63;5042417;28;20051;-69
2021/03/22 02:46:39;;;;;;;9.73;1.70;;;;;;;3.79;54.42;102133.13;5044204;28;20747;-69
2021/03/22 02:49:10;;;;;;;11.15;1.30;;;;;;;3.99;54.23;102141.91;5044021;28;21037;-69
2021/03/22 02:51:52;;;;;;;6.53;1.10;;;;;;;3.86;54.16;102134.88;5045697;28;20104;-69
2021/03/22 02:54:34;;;;;;;24.17;1.13;;;;;;;3.73;54.15;102131.31;5045439;28;20948;-69
2021/03/22 02:57:25;;;;;;;18.63;2.80;;;;;;;3.41;55.17;102138.78;5047679;28;20053;-71
2021/03/22 02:59:58;;;;;;;9.95;0.90;;;;;;;3.47;54.98;102141.44;5030481;28;20029;-69
2021/03/22 03:02:26;;;;;;;18.48;2.25;;;;;;;3.87;53.60;102146.94;5047354;28;20033;-69
2021/03/22 03:04:53;;;;;;;15.35;1.83;;;;;;;3.91;53.58;102151.31;5047875;28;20037;-72
2021/03/22 03:07:25;;;;;;;15.40;1.75;;;;;;;3.57;54.57;102152.72;5047673;28;20116;-69
2021/03/22 03:09:51;;;;;;;12.80;1.45;;;;;;;4.14;52.90;102138.56;5049125;28;20043;-70
2021/03/22 03:12:21;;;;;;;12.98;0.85;;;;;;;3.77;54.40;102134.81;5047576;28;20033;-69
2021/03/22 03:14:50;;;;;;;17.08;2.25;;;;;;;3.52;54.60;102144.06;5047980;28;20040;-69
2021/03/22 03:17:17;;;;;;;16.02;1.40;;;;;;;4.05;53.43;102145.38;5046269;28;20033;-69
2021/03/22 03:19:43;;;;;;;19.45;1.67;;;;;;;4.07;53.72;102148.84;5045832;28;20100;-71
2021/03/22 03:22:10;;;;;;;9.70;1.00;;;;;;;3.59;55.24;102149.31;5031235;28;20064;-71
2021/03/22 03:24:37;;;;;;;14.85;1.92;;;;;;;3.91;54.17;102142.69;5048931;28;20120;-69
2021/03/22 03:27:04;;;;;;;13.85;1.23;;;;;;;3.85;54.73;102147.81;5044021;28;20045;-69
2021/03/22 03:29:30;;;;;;;16.83;1.15;;;;;;;3.94;54.26;102148.75;5049937;28;20105;-69
2021/03/22 03:31:56;;;;;;;16.17;1.67;;;;;;;3.53;54.98;102156.13;5043996;28;20093;-68
2021/03/22 03:34:22;;;;;;;12.05;1.63;;;;;;;3.99;53.64;102164.31;5046770;28;20579;-69
2021/03/22 03:36:48;;;;;;;12.20;1.13;;;;;;;4.18;53.31;102162.72;5047875;28;20049;-69
2021/03/22 03:39:14;;;;;;;11.98;2.20;;;;;;;3.90;53.61;102162.53;5049387;28;20425;-71
2021/03/22 03:41:40;;;;;;;12.98;1.85;;;;;;;3.79;53.92;102164.16;5046167;28;20072;-70
2021/03/22 03:44:08;;;;;;;13.88;1.23;;;;;;;3.79;54.07;102162.41;5048448;28;20036;-70
2021/03/22 03:46:34;;;;;;;15.07;1.90;;;;;;;4.02;53.20;102174.69;5045295;28;20021;-70
2021/03/22 03:49:00;;;;;;;5.30;1.55;;;;;;;4.14;52.95;102176.50;5048126;28;20033;-70
2021/03/22 03:51:26;;;;;;;18.30;1.50;;;;;;;4.01;53.15;102171.22;5048909;28;20111;-71
2021/03/22 03:53:51;;;;;;;12.75;1.25;;;;;;;3.90;53.60;102174.59;5048633;28;20065;-71
2021/03/22 03:56:17;;;;;;;12.48;1.88;;;;;;;3.96;53.56;102177.22;5046785;28;21342;-68
2021/03/22 03:58:42;;;;;;;26.83;2.15;;;;;;;3.91;53.39;102168.56;5044699;28;20039;-72
2021/03/22 04:01:08;;;;;;;8.77;1.02;;;;;;;3.80;53.68;102165.88;5044358;28;20040;-70
2021/03/22 04:03:38;;;;;;;19.25;1.95;;;;;;;4.07;52.85;102174.72;5043888;28;20029;-71
2021/03/22 04:06:11;;;;;;;5.65;0.80;;;;;;;3.91;53.43;102169.41;5041592;28;20043;-70
2021/03/22 04:08:40;;;;;;;7.60;1.05;;;;;;;3.79;53.61;102164.16;5043974;28;20468;-70
2021/03/22 04:11:18;;;;;;;15.98;1.25;;;;;;;3.83;53.17;102163.31;5043185;28;20607;-71
2021/03/22 04:13:44;;;;;;;13.50;1.10;;;;;;;4.27;51.95;102160.19;5042393;28;21044;-70
2021/03/22 04:16:12;;;;;;;10.75;1.15;;;;;;;3.64;53.59;102169.16;5041643;28;20116;-71
2021/03/22 04:18:38;;;;;;;10.23;1.35;;;;;;;4.04;52.93;102160.03;5044136;28;20055;-71
2021/03/22 04:21:06;;;;;;;9.68;1.00;;;;;;;4.00;52.79;102168.63;5041174;28;20044;-71
2021/03/22 04:23:33;;;;;;;12.32;0.68;;;;;;;3.99;53.25;102178.13;5041486;28;20044;-70
2021/03/22 04:26:00;;;;;;;16.58;2.10;;;;;;;4.04;52.90;102175.56;5043275;28;20039;-70
2021/03/22 04:28:26;;;;;;;11.25;1.52;;;;;;;4.02;52.88;102178.13;5024224;28;20297;-70
2021/03/22 04:30:51;;;;;;;19.70;2.92;;;;;;;3.93;53.20;102187.53;5043688;28;20028;-70
2021/03/22 04:33:17;;;;;;;6.90;0.90;;;;;;;3.57;53.60;102178.59;5022536;28;20136;-70
2021/03/22 04:35:43;;;;;;;9.98;0.80;;;;;;;3.97;52.96;102181.53;5041788;28;20029;-70
2021/03/22 04:38:08;;;;;;;16.92;1.73;;;;;;;4.13;52.04;102191.16;5039364;28;20028;-70
2021/03/22 04:40:34;;;;;;;12.82;0.68;;;;;;;4.05;52.66;102197.13;5043922;28;20788;-70
2021/03/22 04:42:59;;;;;;;11.07;0.47;;;;;;;3.88;53.23;102197.84;5040597;28;20033;-70
2021/03/22 04:45:28;;;;;;;6.15;0.77;;;;;;;3.61;54.30;102190.69;5045428;28;20040;-70
2021/03/22 04:47:54;;;;;;;9.65;1.10;;;;;;;3.38;55.14;102203.34;5042370;28;20025;-70
2021/03/22 04:50:22;;;;;;;12.75;1.10;;;;;;;3.81;53.88;102198.66;5044924;28;20493;-70
2021/03/22 04:52:48;;;;;;;12.68;0.80;;;;;;;3.57;54.36;102187.19;5044492;28;20037;-71
2021/03/22 04:55:14;;;;;;;3.75;0.85;;;;;;;3.69;53.73;102186.44;5040697;28;20041;-71
2021/03/22 04:57:40;;;;;;;8.98;1.35;;;;;;;3.81;53.37;102190.88;5041166;28;20358;-72
2021/03/22 05:00:13;;;;;;;4.85;0.95;;;;;;;3.94;53.46;102197.91;5040641;28;20095;-70
2021/03/22 05:02:39;;;;;;;5.38;1.00;;;;;;;4.18;52.60;102199.81;5043250;28;20043;-70
2021/03/22 05:05:06;;;;;;;6.60;1.13;;;;;;;4.21;52.57;102192.09;5038578;28;20144;-72
2021/03/22 05:07:31;;;;;;;6.30;0.60;;;;;;;3.90;53.64;102193.56;5042640;28;20170;-72
2021/03/22 05:09:57;;;;;;;4.72;0.45;;;;;;;4.29;52.61;102194.72;5039431;28;20444;-71
2021/03/22 05:12:22;;;;;;;9.05;0.73;;;;;;;4.13;53.17;102190.31;5042038;28;20036;-71
2021/03/22 05:14:48;;;;;;;8.70;1.65;;;;;;;4.14;53.33;102197.19;5040173;28;20558;-71
2021/03/22 05:17:14;;;;;;;7.78;1.45;;;;;;;3.54;54.59;102194.06;5028010;28;20044;-71
2021/03/22 05:19:40;;;;;;;14.27;0.60;;;;;;;3.73;54.47;102200.28;5042220;28;20057;-70
2021/03/22 05:22:06;;;;;;;9.70;0.55;;;;;;;4.02;53.59;102200.56;5040921;28;20044;-70
2021/03/22 05:24:32;;;;;;;4.97;1.10;;;;;;;3.93;53.63;102198.75;5024322;28;20037;-70
2021/03/22 05:26:58;;;;;;;6.70;1.30;;;;;;;4.22;53.21;102190.38;5041964;28;20028;-70
2021/03/22 05:29:26;;;;;;;6.22;0.90;;;;;;;3.98;53.95;102197.09;5056416;28;20056;-70
2021/03/22 05:31:53;;;;;;;11.30;1.40;;;;;;;4.07;53.81;102198.00;5024339;28;20166;-70
2021/03/22 05:34:19;;;;;;;11.75;0.93;;;;;;;3.80;54.80;102204.66;5037012;28;20526;-70
2021/03/22 05:36:46;;;;;;;3.90;0.70;;;;;;;4.27;53.50;102209.38;5038148;28;20045;-70
2021/03/22 05:39:12;;;;;;;11.07;1.02;;;;;;;4.20;53.45;102212.78;5043946;28;20809;-70
2021/03/22 05:41:56;;;;;;;10.45;1.30;;;;;;;4.28;53.24;102215.44;5040410;28;20124;-70
2021/03/22 05:44:36;;;;;;;14.43;1.33;;;;;;;3.80;54.63;102212.41;5041009;28;20104;-69
2021/03/22 05:47:17;;;;;;;7.15;2.08;;;;;;;4.08;54.20;102215.28;5042345;28;20484;-71
2021/03/22 05:49:49;;;;;;;10.93;1.25;;;;;;;3.74;55.13;102217.56;5044009;28;20604;-70
2021/03/22 05:52:24;;;;;;;;;;;;;;;3.87;54.67;102224.56;5039132;28;20051;-71
2021/03/22 05:55:02;;;;;;;5.10;1.77;;;;;;;4.01;54.05;102232.47;5064113;28;19917;-71
2021/03/22 05:57:27;;;;;;;8.35;0.90;;;;;;;4.17;54.01;102234.31;5039321;28;20452;-71
2021/03/22 06:00:02;;;;;;;6.40;1.10;;;;;;;4.13;54.13;102227.38;5040653;28;20062;-70
2021/03/22 06:02:56;;;;;;;5.43;0.87;;;;;;;4.18;54.28;102224.84;5040003;28;20415;-70
2021/03/22 06:05:32;;;;;;;11.05;1.33;;;;;;;4.04;54.83;102226.44;5035651;28;20029;-70
2021/03/22 06:08:12;;;;;;;9.10;2.47;;;;;;;4.40;53.76;102231.06;5040300;28;20083;-71
2021/03/22 06:10:44;;;;;;;6.50;0.82;;;;;;;4.48;53.76;102237.16;5043074;28;20044;-71
2021/03/22 06:13:10;;;;;;;11.27;1.02;;;;;;;4.33;54.17;102226.69;5039696;28;20032;-70
2021/03/22 06:15:42;;;;;;;8.82;1.20;;;;;;;4.35;54.16;102231.00;5042365;28;20032;-71
2021/03/22 06:18:26;;;;;;;8.73;0.93;;;;;;;4.42;54.32;102237.97;5037658;28;20481;-70
2021/03/22 06:20:55;;;;;;;9.43;1.58;;;;;;;4.45;53.95;102228.50;5042417;28;20037;-71
2021/03/22 06:23:26;;;;;;;10.98;1.35;;;;;;;4.21;54.82;102227.47;5043786;28;20120;-70
2021/03/22 06:25:52;;;;;;;11.15;1.00;;;;;;;4.06;55.25;102235.09;5042696;28;20056;-71
2021/03/22 06:28:26;;;;;;;11.65;0.95;;;;;;;4.54;54.42;102228.56;5041702;28;20061;-70
2021/03/22 06:30:59;;;;;;;9.70;0.90;;;;;;;4.58;53.73;102236.34;5042406;28;20740;-71
2021/03/22 06:33:37;;;;;;;5.65;0.85;;;;;;;4.06;55.18;102240.28;5037211;28;20037;-70
2021/03/22 06:36:05;;;;;;;10.55;0.80;;;;;;;4.07;55.62;102250.59;5028482;28;20998;-71
2021/03/22 06:38:31;;;;;;;8.60;1.15;;;;;;;4.52;54.33;102248.38;5042156;28;20041;-71
2021/03/22 06:40:56;;;;;;;18.90;1.25;;;;;;;4.24;54.81;102248.19;5041479;28;20100;-71
2021/03/22 06:43:26;;;;;;;11.95;1.13;;;;;;;4.77;53.36;102252.03;5043228;28;20743;-70
2021/03/22 06:46:10;;;;;;;13.15;1.48;;;;;;;4.47;53.98;102255.25;5025436;28;20052;-70
2021/03/22 06:48:37;;;;;;;15.95;1.70;;;;;;;4.66;53.20;102253.69;5041105;28;20039;-70
2021/03/22 06:51:02;;;;;;;17.00;1.23;;;;;;;4.80;52.83;102258.09;5042365;28;20405;-69
2021/03/22 06:53:31;;;;;;;11.43;1.45;;;;;;;4.75;53.27;102262.38;5035909;28;20029;-71
2021/03/22 06:56:11;;;;;;;15.73;0.82;;;;;;;4.53;53.04;102257.91;5039972;28;20033;-70
2021/03/22 06:58:36;;;;;;;12.90;1.30;;;;;;;4.95;52.33;102257.34;5038105;28;20044;-70
2021/03/22 07:01:25;;;;;;;14.35;1.73;;;;;;;4.91;51.98;102259.91;5040016;28;20069;-70
2021/03/22 07:03:52;;;;;;;16.85;2.30;;;;;;;4.91;52.21;102265.97;5041397;28;20032;-70
2021/03/22 07:06:22;;;;;;;19.13;1.58;;;;;;;5.21;51.55;102269.56;5024279;28;20051;-72
2021/03/22 07:08:48;;;;;;;8.85;1.05;;;;;;;5.01;51.89;102277.22;5037764;28;20100;-71
2021/03/22 07:11:21;;;;;;;8.32;1.20;;;;;;;4.82;52.31;102277.09;5042598;28;20048;-71
2021/03/22 07:13:55;;;;;;;11.65;1.00;;;;;;;4.89;52.51;102278.03;5039735;28;20068;-70
2021/03/22 07:16:24;;;;;;;12.57;1.02;;;;;;;5.00;52.56;102284.16;5040550;28;20061;-69
2021/03/22 07:19:13;;;;;;;14.35;1.42;;;;;;;5.44;51.29;102280.91;5039596;28;20040;-70
2021/03/22 07:21:55;;;;;;;10.02;0.65;;;;;;;5.15;51.17;102280.78;5018091;28;20028;-70
2021/03/22 07:24:35;;;;;;;9.30;0.97;;;;;;;5.10;51.33;102276.41;5040953;28;20080;-70
2021/03/22 07:27:12;;;;;;;16.15;0.80;;;;;;;5.22;51.73;102277.34;5025315;28;20443;-70
2021/03/22 07:30:03;;;;;;;18.60;1.58;;;;;;;5.50;50.60;102282.66;5040110;28;20136;-70
2021/03/22 07:32:39;;;;;;;8.98;0.85;;;;;;;4.98;52.63;102287.59;5037230;28;20071;-71
2021/03/22 07:35:26;;;;;;;11.10;1.33;;;;;;;4.98;52.06;102292.78;5037268;28;20049;-71
2021/03/22 07:38:08;;;;;;;11.85;1.02;;;;;;;5.02;51.71;102289.34;5041759;28;20037;-71
2021/03/22 07:40:53;;;;;;;10.00;0.88;;;;;;;5.02;52.17;102286.75;5046309;28;20551;-71
2021/03/22 07:43:50;;;;;;;10.73;1.58;;;;;;;5.45;50.88;102284.38;5043270;28;20162;-71
2021/03/22 07:46:40;;;;;;;8.65;1.30;;;;;;;5.38;50.93;102287.81;5045649;28;20636;-71
2021/03/22 07:49:37;;;;;;;8.13;0.70;;;;;;;5.61;50.46;102286.19;5042743;28;20048;-71
2021/03/22 07:52:12;;;;;;;8.65;1.23;;;;;;;5.85;50.08;102290.56;5041339;28;20049;-71
2021/03/22 07:54:47;;;;;;;7.90;1.02;;;;;;;5.67;50.63;102288.78;5043605;28;20685;-72
2021/03/22 07:57:56;;;;;;;11.18;1.10;;;;;;;5.96;50.33;102285.38;5041986;28;20051;-70
2021/03/22 08:00:28;;;;;;;10.80;2.20;;;;;;;4.93;53.09;102284.97;5044611;28;20056;-71
2021/03/22 08:03:19;;;;;;;11.38;1.55;;;;;;;5.11;52.70;102289.41;5023808;28;20051;-71
2021/03/22 08:06:06;;;;;;;13.10;1.45;;;;;;;4.98;53.27;102288.44;5044320;28;20043;-70
2021/03/22 08:08:53;;;;;;;10.15;0.98;;;;;;;4.97;52.98;102298.84;5041619;28;20036;-70
2021/03/22 08:11:28;;;;;;;15.60;1.88;;;;;;;4.83;53.40;102289.22;5043114;28;20688;-70
2021/03/22 08:14:22;;;;;;;2.75;0.47;;;;;;;5.50;51.66;102292.16;5044372;28;20168;-71
2021/03/22 08:17:12;;;;;;;5.25;0.77;;;;;;;5.75;51.68;102299.19;5027133;28;20117;-70
2021/03/22 08:19:47;;;;;;;18.20;1.23;;;;;;;5.42;51.64;102300.78;5043996;28;20120;-70
2021/03/22 08:22:30;;;;;;;8.32;1.48;;;;;;;6.96;48.46;102295.81;5041531;28;20040;-71
2021/03/22 08:25:15;;;;;;;5.25;0.80;;;;;;;8.09;45.15;102286.66;5045909;28;20062;-71
2021/03/22 08:27:46;;;;;;;8.30;1.38;;;;;;;7.03;46.43;102278.47;5044630;28;20033;-70
2021/03/22 08:30:35;;;;;;;7.70;1.30;;;;;;;6.59;47.45;102282.00;5041552;28;20053;-70
2021/03/22 08:33:27;;;;;;;11.43;1.63;;;;;;;6.05;48.75;102288.00;5055569;28;20481;-72
2021/03/22 08:36:04;;;;;;;8.70;0.75;;;;;;;5.76;49.96;102294.84;5044566;28;20097;-70
2021/03/22 08:38:53;;;;;;;5.90;1.40;;;;;;;6.24;48.57;102294.09;5041852;28;20044;-70
2021/03/22 08:41:31;;;;;;;12.40;0.70;;;;;;;6.05;49.20;102300.97;5046435;28;20040;-71
2021/03/22 08:44:05;;;;;;;4.40;0.98;;;;;;;6.07;49.08;102301.84;5042547;28;20035;-74
2021/03/22 08:46:48;;;;;;;12.05;0.90;;;;;;;6.58;47.79;102299.31;5041555;28;20128;-70
2021/03/22 08:49:44;;;;;;;4.15;0.85;;;;;;;6.81;46.92;102304.47;5040715;28;20045;-70
2021/03/22 08:52:31;;;;;;;12.55;1.35;;;;;;;7.96;44.01;102303.25;5047794;28;20044;-70
2021/03/22 08:55:15;;;;;;;10.95;0.60;;;;;;;8.15;43.67;102289.19;5040559;28;20029;-70
2021/03/22 08:57:56;;;;;;;14.13;1.77;;;;;;;10.41;38.76;102285.69;5066755;28;20033;-70
2021/03/22 09:00:41;;;;;;;6.57;1.30;;;;;;;9.83;38.13;102294.44;5045584;28;20039;-71
2021/03/22 09:03:13;;;;;;;9.25;1.08;;;;;;;8.96;39.89;102295.47;5026567;28;20036;-70
2021/03/22 09:05:40;;;;;;;11.30;0.52;;;;;;;9.14;40.65;102293.53;5042130;28;20036;-71
2021/03/22 09:08:22;;;;;;;6.10;0.90;;;;;;;8.65;41.06;102294.88;5041772;28;20094;-70
2021/03/22 09:10:50;;;;;;;9.30;0.85;;;;;;;8.46;40.99;102296.78;5026993;28;20639;-70
2021/03/22 09:13:30;;;;;;;7.85;1.15;;;;;;;8.52;41.24;102293.28;5040057;28;20037;-71
2021/03/22 09:16:14;;;;;;;13.07;1.48;;;;;;;8.65;40.99;102288.78;5040567;28;20065;-71
2021/03/22 09:19:11;;;;;;;8.00;0.63;;;;;;;8.61;41.61;102294.94;5054531;28;20033;-71
2021/03/22 09:21:45;;;;;;;2.97;0.50;;;;;;;8.37;41.28;102304.66;5040044;28;20038;-70
2021/03/22 09:24:44;;;;;;;7.45;0.75;;;;;;;8.48;41.26;102302.84;5041366;28;20115;-72
2021/03/22 09:27:13;;;;;;;5.47;0.30;;;;;;;8.97;41.02;102302.41;5022241;28;20120;-72
2021/03/22 09:30:05;;;;;;;3.85;0.77;;;;;;;8.00;40.57;102304.06;5039510;28;20044;-71
2021/03/22 09:32:34;;;;;;;6.07;0.88;;;;;;;8.74;39.09;102309.63;5035760;28;20087;-71
2021/03/22 09:35:16;;;;;;;14.65;0.70;;;;;;;9.18;38.88;102309.13;5044447;28;20037;-73
2021/03/22 09:38:03;;;;;;;5.00;0.90;;;;;;;9.51;37.78;102303.53;5043227;28;20037;-72
2021/03/22 09:40:29;;;;;;;6.60;0.65;;;;;;;10.47;38.19;102305.66;5037842;28;20040;-73
2021/03/22 09:43:07;;;;;;;8.98;1.05;;;;;;;10.54;36.18;102313.34;5042117;28;20038;-72
2021/03/22 09:45:39;;;;;;;7.07;0.38;;;;;;;11.20;35.30;102313.94;5044156;28;20028;-71
2021/03/22 09:48:04;;;;;;;3.95;0.65;;;;;;;10.72;35.11;102317.41;5041706;28;20127;-71
2021/03/22 09:50:33;;;;;;;9.40;0.55;;;;;;;10.21;36.25;102327.81;5041795;28;20124;-71
2021/03/22 09:53:22;;;;;;;5.05;0.63;;;;;;;10.22;35.55;102322.59;5041872;28;20033;-70
2021/03/22 09:55:56;;;;;;;3.92;1.23;;;;;;;9.32;36.73;102324.66;5036587;28;20028;-71
2021/03/22 09:58:42;;;;;;;7.32;0.63;;;;;;;9.19;37.66;102333.50;5040833;28;20416;-71
2021/03/22 10:01:35;;;;;;;5.93;0.57;;;;;;;9.80;37.93;102322.31;5069289;28;20044;-71
2021/03/22 10:04:14;;;;;;;3.08;0.30;;;;;;;9.32;38.28;102327.25;5021056;28;20075;-70
2021/03/22 10:07:05;;;;;;;21.05;1.17;;;;;;;8.59;39.54;102315.78;5042147;28;20036;-70
2021/03/22 10:09:49;;;;;;;5.40;0.40;;;;;;;8.84;38.55;102326.03;5037576;28;20464;-71
2021/03/22 10:12:22;;;;;;;4.65;0.55;;;;;;;8.79;39.44;102333.88;5041294;28;20033;-70
2021/03/22 10:15:02;;;;;;;7.13;0.50;;;;;;;8.64;39.91;102337.44;5038386;28;20029;-71
2021/03/22 10:17:34;;;;;;;6.43;0.60;;;;;;;8.84;39.10;102329.50;5042345;28;20040;-70
2021/03/22 10:20:22;;;;;;;5.10;0.30;;;;;;;7.37;41.58;102335.56;5040587;28;20493;-70
2021/03/22 10:22:48;;;;;;;4.70;0.70;;;;;;;7.70;41.01;102332.00;5022507;28;20316;-71
2021/03/22 10:25:20;;;;;;;8.60;0.60;;;;;;;8.23;40.68;102329.97;5042729;28;20067;-70
2021/03/22 10:27:46;;;;;;;;;;;;;;;7.54;41.44;102336.38;5044239;28;20041;-72
2021/03/22 10:30:15;;;;;;;8.05;0.63;;;;;;;8.00;41.91;102341.38;5043274;28;19913;-71
2021/03/22 10:32:55;;;;;;;5.63;0.40;;;;;;;8.32;40.72;102332.50;5025969;28;20082;-71
2021/03/22 10:35:22;;;;;;;5.70;0.45;;;;;;;8.10;40.38;102337.84;5043035;28;20697;-70
2021/03/22 10:37:51;;;;;;;4.55;1.02;;;;;;;7.88;41.56;102344.91;5023663;28;20064;-72
2021/03/22 10:40:38;;;;;;;12.13;1.25;;;;;;;8.31;40.32;102343.78;5043570;28;20075;-71
2021/03/22 10:43:06;;;;;;;2.30;0.65;;;;;;;7.89;41.29;102350.97;5040172;28;20041;-72
2021/03/22 10:45:38;;;;;;;2.70;0.40;;;;;;;7.67;41.64;102351.09;5041936;28;20041;-71
2021/03/22 10:48:19;;;;;;;;;;;;;;;8.00;41.10;102348.31;5039094;28;20043;-71
2021/03/22 10:50:45;;;;;;;5.20;0.90;;;;;;;7.50;41.45;102356.31;5041310;28;19936;-71
2021/03/22 10:53:17;;;;;;;8.27;0.52;;;;;;;7.45;41.69;102354.63;5038971;28;20128;-70
2021/03/22 10:55:45;;;;;;;7.68;0.43;;;;;;;7.26;42.16;102353.78;5039374;28;20111;-71
2021/03/22 10:58:26;;;;;;;5.38;1.17;;;;;;;7.13;42.67;102358.16;5036147;28;20045;-70
2021/03/22 11:01:08;;;;;;;18.38;1.15;;;;;;;7.28;42.91;102345.13;5030042;28;20444;-73
2021/03/22 11:03:35;;;;;;;5.65;0.50;;;;;;;7.47;41.95;102355.50;5041094;28;20036;-72
2021/03/22 11:06:10;;;;;;;6.30;0.55;;;;;;;7.21;42.67;102359.00;5043836;28;20176;-70
2021/03/22 11:08:39;;;;;;;4.68;0.47;;;;;;;7.65;42.42;102358.06;5040223;28;20079;-70
2021/03/22 11:11:14;;;;;;;6.38;0.55;;;;;;;8.22;40.98;102357.75;5042994;28;20498;-70
2021/03/22 11:13:43;;;;;;;5.32;0.40;;;;;;;7.56;41.13;102359.78;5037829;28;20777;-70
2021/03/22 11:16:18;;;;;;;4.07;1.08;;;;;;;7.82;41.01;102357.09;5040668;28;20036;-70
2021/03/22 11:18:44;;;;;;;9.05;0.40;;;;;;;8.04;39.41;102363.06;5042384;28;20065;-71
2021/03/22 11:21:10;;;;;;;9.18;0.57;;;;;;;8.29;39.86;102358.56;5041412;28;20072;-73
2021/03/22 11:23:44;;;;;;;6.45;0.77;;;;;;;8.90;38.41;102362.47;5027148;28;20171;-70
2021/03/22 11:26:24;;;;;;;3.20;0.75;;;;;;;8.85;39.05;102359.03;5026061;28;20060;-72
2021/03/22 11:28:50;;;;;;;3.47;0.60;;;;;;;9.00;37.73;102358.03;5045042;28;20084;-71
2021/03/22 11:31:23;;;;;;;4.25;0.80;;;;;;;8.90;38.33;102362.47;5042266;28;20099;-70
2021/03/22 11:34:06;;;;;;;3.50;0.73;;;;;;;8.87;38.99;102362.50;5042431;28;20323;-71
2021/03/22 11:36:40;;;;;;;9.13;1.38;;;;;;;8.51;38.33;102357.53;5040885;28;20044;-72
2021/03/22 11:39:19;;;;;;;7.85;0.80;;;;;;;8.84;38.43;102355.56;5030568;28;20543;-70
2021/03/22 11:42:28;;;;;;;3.97;0.30;;;;;;;8.65;37.55;102360.06;5041647;28;20033;-70
2021/03/22 11:44:53;;;;;;;2.03;0.20;;;;;;;8.87;37.65;102357.28;5032226;28;20446;-71
2021/03/22 11:47:48;;;;;;;5.47;0.20;;;;;;;9.46;36.49;102357.56;5037927;28;20048;-70
2021/03/22 11:50:37;;;;;;;0.35;0.10;;;;;;;8.71;37.20;102362.63;5022334;28;20848;-71
2021/03/22 11:53:08;;;;;;;3.50;0.10;;;;;;;8.70;36.04;102362.63;5026048;28;20507;-71
2021/03/22 11:55:46;;;;;;;1.42;0.10;;;;;;;8.97;35.75;102357.19;5024427;28;20038;-71
2021/03/22 11:58:29;;;;;;;3.92;0.10;;;;;;;9.32;35.29;102355.97;5025530;28;20043;-71